หน้าหลัก
METAR-TAF:

METAR-TAF

ท่าอากาศยาน :

เอเดน, เยเมน

ละติจูด: 12-40N, ลองจิจูด: 045-02E, ความสูง: 3 ม.

การสังเกตสภาพอากาศปัจจุบัน

รายงานได้ทำขึ้นเมื่อ 33 นาทีที่แล้ว ณ เวลา 05:00 UTC
ลม 10 นอตจากตะวันตก
อุณหภูมิ 31°C
ความชื้น 75%
ความกดอากาศ 1003 hPa
ทัศนวิสัย: 4000 ม.
ฝุ่นละอองแผ่เป็นวงกว้าง,

METAR: OYAA 240500Z 27010KT 4000 DU NSC 31/26 Q1003 NOSIG

เวลา: 08:33 (05:33 UTC)


TAF: หายไป

สังเกตการณ์สภาพอากาศและพยากรณ์อากาศของสนามบินมากกว่า 4000 แห่ง (รายงาน METAR และ TAF).

สถานีที่ดูได้จะแสดงไว้ด้วยจุดสีเหลืองและสีแดงบนแผนที่.

เลื่อนเมาส์ไปเหนือจุดเพื่อดูชื่อสถานี.

แล้วคลิกเพื่อดูสังเกตการณ์และการพยากรณ์สภาพอากาศ.

ในการเปลี่ยนแผนที่: คลิกที่ปุ่มสีเขียวที่มีกากบาทสีดำเพื่อซูมเข้า; ที่ปุ่มสีเขียวที่มีขีดเพื่อซูมออก; หรือที่ลูกศรสีเขียวเพื่อไปยังแผนที่ที่อยู่ติดกัน.


METAR-TAF: